Time;durP1;ratioP1;P1;durP2;ratioP2;P2;SDS_P1;SDS_P2;PMS_P1;PMS_P2;Temp;Humidity;BMP_temperature;BMP_pressure;BME280_temperature;BME280_humidity;BME280_pressure;Samples;Min_cycle;Max_cycle;Signal;HPM_P1;HPM_P2
2023/07/01 00:02:09;;;;;;;8.30;2.30;;;16.90;99.90;;;;;;5073110;28;20036;-52
2023/07/01 00:04:34;;;;;;;8.77;2.78;;;16.90;99.90;;;;;;5072889;28;20358;-50
2023/07/01 00:07:00;;;;;;;9.13;2.10;;;16.90;99.90;;;;;;5074170;28;20036;-50
2023/07/01 00:09:26;;;;;;;11.52;2.38;;;17.00;99.90;;;;;;5072949;28;20204;-48
2023/07/01 00:11:53;;;;;;;6.15;2.33;;;16.90;99.90;;;;;;5073150;28;20335;-52
2023/07/01 00:14:18;;;;;;;8.25;2.17;;;16.90;99.90;;;;;;5074021;28;20243;-52
2023/07/01 00:16:44;;;;;;;9.50;2.65;;;17.00;99.90;;;;;;5073702;28;20052;-52
2023/07/01 00:19:10;;;;;;;9.00;2.47;;;16.80;99.90;;;;;;5072625;28;20074;-52
2023/07/01 00:21:36;;;;;;;9.23;2.20;;;16.80;99.90;;;;;;5072768;28;20151;-50
2023/07/01 00:24:01;;;;;;;9.50;2.00;;;16.80;99.90;;;;;;5073593;28;20025;-48
2023/07/01 00:26:27;;;;;;;11.57;2.30;;;16.70;99.90;;;;;;5071502;28;20060;-49
2023/07/01 00:28:53;;;;;;;6.57;2.10;;;16.80;99.90;;;;;;5072395;28;20587;-50
2023/07/01 00:31:19;;;;;;;10.95;2.70;;;16.90;99.90;;;;;;5072595;28;20365;-51
2023/07/01 00:33:44;;;;;;;8.88;2.38;;;18.90;99.90;;;;;;5072305;28;20032;-49
2023/07/01 00:36:10;;;;;;;7.18;2.00;;;16.70;99.90;;;;;;5053117;28;20413;-48
2023/07/01 00:38:36;;;;;;;7.28;2.22;;;16.80;99.90;;;;;;5071765;28;20512;-52
2023/07/01 00:41:02;;;;;;;11.27;2.03;;;16.80;99.90;;;;;;5071765;28;20084;-51
2023/07/01 00:43:27;;;;;;;12.45;2.70;;;16.80;99.90;;;;;;5072524;28;20052;-51
2023/07/01 00:45:53;;;;;;;8.57;2.47;;;16.90;99.90;;;;;;5071552;28;20405;-49
2023/07/01 00:48:28;;;;;;;11.23;2.60;;;16.90;99.90;;;;;;5072497;28;20055;-52
2023/07/01 00:50:55;;;;;;;11.18;2.75;;;16.90;99.90;;;;;;5071910;28;20105;-52
2023/07/01 00:53:22;;;;;;;8.75;2.33;;;16.90;99.90;;;;;;5071344;28;20167;-51
2023/07/01 00:55:48;;;;;;;8.75;2.22;;;16.80;99.90;;;;;;5070754;28;20044;-51
2023/07/01 00:58:14;;;;;;;9.43;2.30;;;16.90;99.90;;;;;;5033948;28;20075;-52
2023/07/01 01:00:40;;;;;;;9.63;2.25;;;16.80;99.90;;;;;;5051182;28;20049;-49
2023/07/01 01:03:28;;;;;;;9.40;2.08;;;16.60;99.90;;;;;;5051592;28;21122;-51
2023/07/01 01:05:57;;;;;;;12.18;2.47;;;16.80;99.90;;;;;;5051096;28;20102;-49
2023/07/01 01:08:33;;;;;;;7.50;2.25;;;16.90;99.90;;;;;;5051252;28;20033;-50
2023/07/01 01:11:01;;;;;;;10.25;2.38;;;16.80;99.90;;;;;;5051202;28;20428;-50
2023/07/01 01:13:29;;;;;;;7.55;2.50;;;16.90;99.90;;;;;;5051816;28;20421;-52
2023/07/01 01:16:00;;;;;;;9.77;2.42;;;17.00;99.90;;;;;;5052531;28;20060;-50
2023/07/01 01:18:31;;;;;;;11.55;2.50;;;18.30;99.90;;;;;;5051576;28;20053;-52
2023/07/01 01:20:57;;;;;;;13.27;2.28;;;16.90;99.90;;;;;;5050460;28;20463;-49
2023/07/01 01:23:36;;;;;;;9.95;2.13;;;16.80;99.90;;;;;;5055059;28;20361;-48
2023/07/01 01:26:06;;;;;;;8.52;2.45;;;16.80;99.90;;;;;;5055938;28;20040;-52
2023/07/01 01:28:36;;;;;;;8.07;2.20;;;16.90;99.90;;;;;;5055194;28;20047;-51
2023/07/01 01:31:02;;;;;;;10.13;2.25;;;16.80;99.90;;;;;;5055582;28;20052;-49
2023/07/01 01:33:28;;;;;;;8.77;2.00;;;16.80;99.90;;;;;;5054823;28;20442;-51
2023/07/01 01:36:01;;;;;;;7.50;2.60;;;16.60;99.90;;;;;;5056243;28;20040;-47
2023/07/01 01:38:32;;;;;;;6.82;2.78;;;16.90;99.90;;;;;;5055835;28;20128;-47
2023/07/01 01:41:13;;;;;;;9.37;2.27;;;16.90;99.90;;;;;;5056236;28;20097;-48
2023/07/01 01:44:03;;;;;;;7.97;2.40;;;16.70;99.90;;;;;;5055529;28;20041;-49
2023/07/01 01:46:29;;;;;;;9.70;2.47;;;16.40;99.90;;;;;;5055384;28;20086;-48
2023/07/01 01:48:57;;;;;;;7.57;2.65;;;16.40;99.90;;;;;;5053246;28;20141;-51
2023/07/01 01:51:24;;;;;;;11.18;2.78;;;16.20;99.90;;;;;;5054985;28;20040;-46
2023/07/01 01:53:54;;;;;;;7.78;2.22;;;16.60;99.90;;;;;;5055640;28;20071;-47
2023/07/01 01:56:20;;;;;;;9.25;3.15;;;16.40;99.90;;;;;;5058958;28;20067;-50
2023/07/01 01:58:47;;;;;;;9.25;2.42;;;16.40;99.90;;;;;;5074699;28;20127;-51
2023/07/01 02:01:14;;;;;;;8.32;2.95;;;16.30;99.90;;;;;;5056903;28;20460;-50
2023/07/01 02:03:40;;;;;;;11.35;2.70;;;16.20;99.90;;;;;;5075478;28;20059;-50
2023/07/01 02:06:05;;;;;;;9.05;2.65;;;16.40;99.90;;;;;;5074823;28;20036;-48
2023/07/01 02:08:31;;;;;;;8.93;3.00;;;16.30;99.90;;;;;;5074350;28;20550;-47
2023/07/01 02:10:57;;;;;;;9.70;3.00;;;16.40;99.90;;;;;;5056071;28;20411;-48
2023/07/01 02:13:24;;;;;;;8.88;3.28;;;16.20;99.90;;;;;;5074574;28;20109;-47
2023/07/01 02:15:50;;;;;;;8.48;3.05;;;16.40;99.90;;;;;;5074313;28;20671;-50
2023/07/01 02:18:15;;;;;;;9.15;2.70;;;16.30;99.90;;;;;;5075106;28;20047;-46
2023/07/01 02:20:41;;;;;;;6.68;3.05;;;16.30;99.90;;;;;;5074283;28;20109;-47
2023/07/01 02:23:07;;;;;;;7.22;2.58;;;16.20;99.90;;;;;;5076019;28;20497;-50
2023/07/01 02:25:33;;;;;;;11.52;3.05;;;16.50;99.90;;;;;;5054904;28;20043;-48
2023/07/01 02:27:58;;;;;;;8.75;2.90;;;16.30;99.90;;;;;;5074277;28;20052;-48
2023/07/01 02:30:24;;;;;;;8.70;2.70;;;16.40;99.90;;;;;;5074302;28;20484;-48
2023/07/01 02:32:50;;;;;;;9.93;3.08;;;16.50;99.90;;;;;;5074241;28;20042;-46
2023/07/01 02:35:16;;;;;;;9.38;2.90;;;16.50;99.90;;;;;;5073170;28;20066;-48
2023/07/01 02:37:41;;;;;;;10.40;3.10;;;16.50;99.90;;;;;;5073912;28;20036;-48
2023/07/01 02:40:08;;;;;;;15.38;2.97;;;17.20;99.90;;;;;;5074105;28;20048;-47
2023/07/01 02:42:34;;;;;;;7.35;2.50;;;16.50;99.90;;;;;;5075101;28;20032;-50
2023/07/01 02:45:00;;;;;;;10.88;2.70;;;16.40;99.90;;;;;;5073643;28;20067;-48
2023/07/01 02:47:25;;;;;;;9.65;3.15;;;16.40;99.90;;;;;;5075155;28;20672;-48
2023/07/01 02:49:51;;;;;;;13.02;3.63;;;16.60;99.90;;;;;;5055395;28;20048;-50
2023/07/01 02:52:17;;;;;;;10.85;3.10;;;16.40;99.90;;;;;;5076329;28;20040;-48
2023/07/01 02:54:43;;;;;;;9.73;3.08;;;16.50;99.90;;;;;;5074145;28;20055;-47
2023/07/01 02:57:10;;;;;;;7.97;2.88;;;16.50;99.90;;;;;;5074689;28;20047;-51
2023/07/01 02:59:36;;;;;;;7.32;2.97;;;16.70;99.90;;;;;;5074591;28;20503;-48
2023/07/01 03:02:06;;;;;;;8.40;3.45;;;16.50;99.90;;;;;;5075378;28;20143;-49
2023/07/01 03:04:35;;;;;;;6.88;3.38;;;16.60;99.90;;;;;;5075214;28;20095;-49
2023/07/01 03:07:01;;;;;;;17.75;4.40;;;16.50;99.90;;;;;;5075747;28;20127;-51
2023/07/01 03:09:27;;;;;;;8.45;3.30;;;16.50;99.90;;;;;;5074928;28;20036;-51
2023/07/01 03:11:53;;;;;;;9.88;3.78;;;16.40;99.90;;;;;;5075019;28;20032;-50
2023/07/01 03:14:19;;;;;;;9.77;3.50;;;16.40;99.90;;;;;;5075288;28;20040;-48
2023/07/01 03:16:46;;;;;;;13.40;4.45;;;16.40;99.90;;;;;;5075024;28;20136;-51
2023/07/01 03:19:12;;;;;;;9.05;4.15;;;16.50;99.90;;;;;;5074956;28;20062;-49
2023/07/01 03:21:38;;;;;;;9.45;3.97;;;16.20;99.90;;;;;;5073610;28;20079;-49
2023/07/01 03:24:04;;;;;;;11.20;4.45;;;16.20;99.90;;;;;;5073566;28;20161;-47
2023/07/01 03:26:30;;;;;;;9.85;4.13;;;16.40;99.90;;;;;;5073600;28;20135;-48
2023/07/01 03:28:56;;;;;;;11.18;4.30;;;16.30;99.90;;;;;;5073051;28;20048;-50
2023/07/01 03:31:22;;;;;;;12.75;5.35;;;16.30;99.90;;;;;;5072310;28;20039;-50
2023/07/01 03:33:48;;;;;;;10.15;4.72;;;16.30;99.90;;;;;;5073357;28;20454;-50
2023/07/01 03:36:15;;;;;;;9.20;4.65;;;16.10;99.90;;;;;;5072894;28;20071;-51
2023/07/01 03:38:41;;;;;;;10.10;5.40;;;16.20;99.90;;;;;;5073415;28;20115;-51
2023/07/01 03:41:07;;;;;;;11.35;5.75;;;16.10;99.90;;;;;;5072872;28;20032;-49
2023/07/01 03:43:36;;;;;;;10.52;5.28;;;15.90;99.90;;;;;;5073035;28;20113;-47
2023/07/01 03:46:06;;;;;;;9.25;5.53;;;16.00;99.90;;;;;;5072774;28;20055;-46
2023/07/01 03:48:32;;;;;;;11.32;5.60;;;16.10;99.90;;;;;;5074405;28;20048;-48
2023/07/01 03:50:57;;;;;;;14.55;5.75;;;16.00;99.90;;;;;;5073156;28;20504;-50
2023/07/01 03:53:23;;;;;;;9.98;5.55;;;15.80;99.90;;;;;;5072312;28;20043;-46
2023/07/01 03:55:49;;;;;;;7.88;5.20;;;15.90;99.90;;;;;;5055345;28;20497;-50
2023/07/01 03:58:21;;;;;;;10.70;6.25;;;15.80;99.90;;;;;;5072774;28;20059;-49
2023/07/01 04:00:53;;;;;;;9.93;6.20;;;15.80;99.90;;;;;;5072703;28;20048;-51
2023/07/01 04:03:23;;;;;;;13.98;6.10;;;15.70;99.90;;;;;;5072491;28;20048;-47
2023/07/01 04:05:51;;;;;;;13.15;6.13;;;15.60;99.90;;;;;;5072934;28;20445;-50
2023/07/01 04:08:17;;;;;;;16.33;6.65;;;15.70;99.90;;;;;;5071939;28;20425;-49
2023/07/01 04:10:42;;;;;;;12.60;6.47;;;15.60;99.90;;;;;;5053221;28;20046;-47
2023/07/01 04:13:08;;;;;;;12.40;6.78;;;15.50;99.90;;;;;;5054375;28;20714;-46
2023/07/01 04:15:34;;;;;;;12.02;6.55;;;15.40;99.90;;;;;;5073318;28;20052;-46
2023/07/01 04:17:59;;;;;;;10.45;6.43;;;15.50;99.90;;;;;;5054679;28;20079;-49
2023/07/01 04:20:25;;;;;;;14.98;6.38;;;15.30;99.90;;;;;;5074233;28;20416;-48
2023/07/01 04:22:51;;;;;;;14.25;5.90;;;15.50;99.90;;;;;;5023121;28;20081;-46
2023/07/01 04:25:17;;;;;;;13.85;5.53;;;15.60;99.90;;;;;;5072700;28;20446;-50
2023/07/01 04:27:43;;;;;;;13.07;6.07;;;15.40;99.90;;;;;;5072512;28;20063;-49
2023/07/01 04:30:10;;;;;;;12.70;6.30;;;15.40;99.90;;;;;;5072077;28;20047;-47
2023/07/01 04:32:36;;;;;;;10.65;5.97;;;15.60;99.90;;;;;;5073251;28;20052;-47
2023/07/01 04:35:02;;;;;;;12.45;6.25;;;15.50;99.90;;;;;;5071515;28;20393;-46
2023/07/01 04:37:28;;;;;;;9.75;6.25;;;15.50;99.90;;;;;;5072389;28;20040;-51
2023/07/01 04:39:54;;;;;;;10.75;6.28;;;15.50;99.90;;;;;;5073381;28;20046;-46
2023/07/01 04:42:19;;;;;;;9.40;6.15;;;15.50;99.90;;;;;;5072989;28;20127;-47
2023/07/01 04:44:53;;;;;;;16.58;7.63;;;15.60;99.90;;;;;;5071383;28;20439;-48
2023/07/01 04:47:20;;;;;;;13.23;6.72;;;15.40;99.90;;;;;;5072459;28;20040;-48
2023/07/01 04:49:46;;;;;;;12.88;6.55;;;15.70;99.90;;;;;;5072526;28;20422;-51
2023/07/01 04:52:14;;;;;;;13.95;6.47;;;15.30;99.90;;;;;;5071421;28;20044;-48
2023/07/01 04:54:40;;;;;;;9.77;6.95;;;15.50;99.90;;;;;;5071446;28;20050;-48
2023/07/01 04:57:06;;;;;;;10.90;7.15;;;15.60;99.90;;;;;;5056533;28;20052;-47
2023/07/01 04:59:31;;;;;;;9.93;6.43;;;15.30;99.90;;;;;;5058989;28;20127;-48
2023/07/01 05:01:57;;;;;;;14.38;6.60;;;15.50;99.90;;;;;;5078324;28;20073;-48
2023/07/01 05:04:23;;;;;;;13.70;7.00;;;15.50;99.90;;;;;;5076726;28;20043;-51
2023/07/01 05:06:48;;;;;;;11.75;7.18;;;15.50;99.90;;;;;;5079368;28;20389;-50
2023/07/01 05:09:14;;;;;;;14.65;7.20;;;15.50;99.90;;;;;;5077660;28;20028;-48
2023/07/01 05:11:40;;;;;;;11.50;6.82;;;15.50;99.90;;;;;;5077457;28;20840;-47
2023/07/01 05:14:05;;;;;;;9.73;5.78;;;15.60;99.90;;;;;;5076801;28;20040;-47
2023/07/01 05:16:31;;;;;;;11.57;6.55;;;15.50;99.90;;;;;;5077672;28;20040;-50
2023/07/01 05:18:58;;;;;;;12.23;6.43;;;15.30;99.90;;;;;;5079000;28;20135;-50
2023/07/01 05:21:24;;;;;;;11.10;6.40;;;15.50;99.90;;;;;;5077683;28;20071;-50
2023/07/01 05:23:50;;;;;;;13.38;6.70;;;15.80;99.90;;;;;;5078114;28;20126;-47
2023/07/01 05:26:16;;;;;;;11.48;6.72;;;15.80;99.90;;;;;;5059451;28;20276;-48
2023/07/01 05:28:41;;;;;;;10.02;6.90;;;15.90;99.90;;;;;;5058374;28;20097;-47
2023/07/01 05:31:07;;;;;;;16.02;7.07;;;15.70;99.90;;;;;;5078769;28;20048;-48
2023/07/01 05:33:33;;;;;;;12.68;6.82;;;15.70;99.90;;;;;;5078630;28;20551;-46
2023/07/01 05:35:58;;;;;;;12.68;7.38;;;15.90;99.90;;;;;;5078036;28;20169;-46
2023/07/01 05:38:24;;;;;;;11.45;7.18;;;17.40;99.90;;;;;;5078435;28;20044;-48
2023/07/01 05:40:50;;;;;;;10.73;6.93;;;15.70;99.90;;;;;;5079364;28;20312;-51
2023/07/01 05:43:16;;;;;;;11.20;7.05;;;15.70;99.90;;;;;;5078038;28;20135;-50
2023/07/01 05:45:41;;;;;;;11.88;7.55;;;15.90;99.90;;;;;;5058806;28;20040;-47
2023/07/01 05:48:07;;;;;;;14.95;7.95;;;15.60;99.90;;;;;;5078347;28;20518;-47
2023/07/01 05:50:33;;;;;;;13.30;8.50;;;15.80;99.90;;;;;;5060660;28;20036;-47
2023/07/01 05:52:59;;;;;;;11.95;7.70;;;15.80;99.90;;;;;;5078132;28;20048;-46
2023/07/01 05:55:25;;;;;;;14.27;7.93;;;15.90;99.90;;;;;;5077155;28;20097;-48
2023/07/01 05:57:51;;;;;;;14.88;7.95;;;15.70;99.90;;;;;;5075605;28;20449;-49
2023/07/01 06:00:17;;;;;;;12.93;8.63;;;15.60;99.90;;;;;;5078779;28;20048;-53
2023/07/01 06:02:42;;;;;;;12.80;8.90;;;15.90;99.90;;;;;;5076923;28;20130;-48
2023/07/01 06:05:09;;;;;;;14.68;10.55;;;15.70;99.90;;;;;;5077750;28;20203;-50
2023/07/01 06:07:34;;;;;;;15.60;9.13;;;15.70;99.90;;;;;;5076976;28;20040;-51
2023/07/01 06:10:00;;;;;;;19.65;10.00;;;15.60;99.90;;;;;;5073634;28;20516;-50
2023/07/01 06:12:26;;;;;;;15.65;9.98;;;15.70;99.90;;;;;;5073363;28;20400;-50
2023/07/01 06:14:52;;;;;;;14.93;9.40;;;15.80;99.90;;;;;;5073504;28;20052;-47
2023/07/01 06:17:18;;;;;;;15.02;11.05;;;13.80;99.90;;;;;;5075240;28;20044;-50
2023/07/01 06:19:43;;;;;;;13.32;10.40;;;15.60;99.90;;;;;;5074768;28;20121;-51
2023/07/01 06:22:09;;;;;;;16.77;10.90;;;15.60;99.90;;;;;;5074322;28;20501;-49
2023/07/01 06:24:35;;;;;;;19.20;11.65;;;15.70;99.90;;;;;;5055444;28;20408;-50
2023/07/01 06:27:00;;;;;;;16.15;10.38;;;15.90;99.90;;;;;;5074415;28;20039;-49
2023/07/01 06:29:27;;;;;;;15.43;10.43;;;15.80;99.90;;;;;;5073983;28;20044;-47
2023/07/01 06:31:52;;;;;;;16.73;12.10;;;15.90;99.90;;;;;;5073140;28;20071;-50
2023/07/01 06:34:18;;;;;;;11.85;8.88;;;15.80;99.90;;;;;;5073657;28;20155;-47
2023/07/01 06:36:44;;;;;;;12.98;10.45;;;15.70;99.90;;;;;;5073909;28;20040;-52
2023/07/01 06:39:12;;;;;;;15.02;11.43;;;14.20;99.90;;;;;;5073269;28;20047;-52
2023/07/01 06:41:38;;;;;;;14.40;10.73;;;15.80;99.90;;;;;;5073348;28;20071;-50
2023/07/01 06:44:04;;;;;;;13.25;11.00;;;15.90;99.90;;;;;;5073114;28;20048;-51
2023/07/01 06:46:30;;;;;;;13.68;10.90;;;15.70;99.90;;;;;;5073939;28;20032;-51
2023/07/01 06:48:55;;;;;;;10.95;9.60;;;16.00;99.90;;;;;;5074028;28;20039;-51
2023/07/01 06:51:21;;;;;;;15.38;9.75;;;15.90;99.90;;;;;;5073914;28;20055;-48
2023/07/01 06:53:47;;;;;;;10.75;8.52;;;16.00;99.90;;;;;;5054604;28;20048;-47
2023/07/01 06:56:13;;;;;;;12.93;8.50;;;16.10;99.90;;;;;;5054965;28;20433;-48
2023/07/01 06:58:40;;;;;;;9.45;8.50;;;16.00;99.90;;;;;;5073672;28;20154;-51
2023/07/01 07:01:06;;;;;;;10.43;7.90;;;16.00;99.90;;;;;;5073930;28;20114;-51
2023/07/01 07:03:33;;;;;;;8.65;7.38;;;16.00;99.90;;;;;;5074102;28;20109;-48
2023/07/01 07:06:00;;;;;;;9.70;6.97;;;16.10;99.90;;;;;;5073578;28;20040;-51
2023/07/01 07:08:26;;;;;;;10.20;7.28;;;16.00;99.90;;;;;;5070470;28;20119;-50
2023/07/01 07:10:52;;;;;;;9.68;8.13;;;16.10;99.90;;;;;;5071198;28;20556;-52
2023/07/01 07:13:17;;;;;;;11.38;8.02;;;16.00;99.90;;;;;;5072796;28;20109;-52
2023/07/01 07:15:44;;;;;;;11.07;8.30;;;16.10;99.90;;;;;;5071914;28;20044;-49
2023/07/01 07:18:10;;;;;;;9.35;7.80;;;16.10;99.90;;;;;;5074170;28;20040;-54
2023/07/01 07:20:37;;;;;;;9.13;8.18;;;16.20;99.90;;;;;;5072892;28;20086;-52
2023/07/01 07:23:05;;;;;;;12.75;7.32;;;16.10;99.90;;;;;;5071982;28;20052;-52
2023/07/01 07:25:32;;;;;;;10.32;9.25;;;16.20;99.90;;;;;;5071382;28;20036;-51
2023/07/01 07:27:58;;;;;;;10.23;8.32;;;16.30;99.90;;;;;;5053326;28;20560;-52
2023/07/01 07:30:24;;;;;;;10.43;6.43;;;16.20;99.90;;;;;;5052026;28;20100;-52
2023/07/01 07:32:49;;;;;;;8.75;7.40;;;16.20;99.90;;;;;;5070239;28;20055;-52
2023/07/01 07:35:15;;;;;;;9.43;7.30;;;16.40;99.90;;;;;;5072487;28;20040;-53
2023/07/01 07:37:42;;;;;;;10.95;7.50;;;16.30;99.90;;;;;;5070159;28;20070;-52
2023/07/01 07:40:08;;;;;;;7.07;6.25;;;16.30;99.90;;;;;;5070092;28;20048;-50
2023/07/01 07:42:34;;;;;;;7.05;6.20;;;16.40;99.90;;;;;;5072904;28;20051;-48
2023/07/01 07:45:00;;;;;;;7.68;6.15;;;16.30;99.90;;;;;;5072634;28;20085;-49
2023/07/01 07:47:27;;;;;;;7.60;5.45;;;16.60;99.90;;;;;;5069959;28;20113;-52
2023/07/01 07:49:52;;;;;;;6.68;6.05;;;16.60;99.90;;;;;;5071090;28;20051;-53
2023/07/01 07:52:18;;;;;;;6.60;5.70;;;16.80;99.90;;;;;;5072202;28;20246;-52
2023/07/01 07:54:46;;;;;;;7.28;5.95;;;16.70;99.90;;;;;;5070868;28;20044;-52
2023/07/01 07:57:13;;;;;;;6.05;5.20;;;16.80;99.90;;;;;;5070183;28;20094;-50
2023/07/01 07:59:43;;;;;;;5.93;5.18;;;17.00;99.90;;;;;;5070366;28;20044;-52
2023/07/01 08:02:08;;;;;;;6.47;4.15;;;16.70;99.90;;;;;;5070769;28;20052;-51
2023/07/01 08:04:35;;;;;;;5.57;4.97;;;16.90;99.90;;;;;;5072635;28;20409;-52
2023/07/01 08:07:01;;;;;;;6.68;4.80;;;16.70;99.90;;;;;;5072466;28;20065;-51
2023/07/01 08:09:27;;;;;;;6.03;4.88;;;16.80;99.90;;;;;;5072859;28;20519;-50
2023/07/01 08:11:53;;;;;;;6.03;4.97;;;16.80;99.90;;;;;;5073260;28;20079;-52
2023/07/01 08:14:19;;;;;;;7.40;5.55;;;16.90;99.90;;;;;;5055034;28;20417;-51
2023/07/01 08:16:45;;;;;;;5.93;5.32;;;17.00;99.90;;;;;;5072841;28;20320;-50
2023/07/01 08:19:11;;;;;;;5.72;4.97;;;16.90;99.90;;;;;;5074188;28;20047;-50
2023/07/01 08:21:37;;;;;;;5.68;4.85;;;16.80;99.90;;;;;;5073132;28;20047;-47
2023/07/01 08:24:12;;;;;;;6.15;4.90;;;16.90;99.90;;;;;;5073585;28;20048;-51
2023/07/01 08:26:38;;;;;;;6.55;4.50;;;17.00;99.90;;;;;;5072682;28;20068;-49
2023/07/01 08:29:06;;;;;;;5.93;4.63;;;17.00;99.90;;;;;;5073831;28;20127;-52
2023/07/01 08:31:32;;;;;;;7.50;4.60;;;17.10;99.90;;;;;;5073770;28;20040;-49
2023/07/01 08:33:58;;;;;;;5.47;4.57;;;16.70;99.90;;;;;;5071190;28;20050;-52
2023/07/01 08:36:25;;;;;;;6.60;4.80;;;19.10;99.90;;;;;;5072840;28;20090;-53
2023/07/01 08:38:50;;;;;;;6.32;4.70;;;17.00;99.90;;;;;;5071700;28;20373;-49
2023/07/01 08:41:18;;;;;;;5.47;4.45;;;17.10;99.90;;;;;;5073302;28;20044;-48
2023/07/01 08:43:47;;;;;;;5.82;4.32;;;17.10;99.90;;;;;;5071678;28;20067;-48
2023/07/01 08:46:15;;;;;;;5.28;4.07;;;17.20;99.90;;;;;;5072174;28;20185;-50
2023/07/01 08:48:44;;;;;;;4.93;4.05;;;17.10;99.90;;;;;;5072054;28;20044;-47
2023/07/01 08:51:12;;;;;;;6.28;3.78;;;17.30;99.90;;;;;;5054936;28;20790;-50
2023/07/01 08:53:42;;;;;;;4.95;3.78;;;17.30;99.90;;;;;;5071467;28;20052;-49
2023/07/01 08:56:08;;;;;;;5.13;3.45;;;17.50;99.90;;;;;;5078571;28;20076;-49
2023/07/01 08:58:34;;;;;;;4.80;3.33;;;17.40;99.90;;;;;;5078594;28;20052;-48
2023/07/01 09:01:00;;;;;;;4.32;2.90;;;17.50;99.90;;;;;;5078712;28;20469;-50
2023/07/01 09:03:29;;;;;;;3.35;2.65;;;17.60;99.90;;;;;;5078599;28;20192;-48
2023/07/01 09:05:55;;;;;;;4.05;2.78;;;17.60;99.90;;;;;;5079069;28;20180;-48
2023/07/01 09:08:20;;;;;;;3.03;2.05;;;17.60;99.90;;;;;;5078610;28;20077;-53
2023/07/01 09:10:46;;;;;;;3.30;2.40;;;17.70;99.90;;;;;;5078578;28;20535;-53
2023/07/01 09:13:14;;;;;;;3.03;2.10;;;17.60;99.90;;;;;;5078910;28;20073;-48
2023/07/01 09:15:45;;;;;;;3.25;2.05;;;17.60;99.90;;;;;;5071088;28;20048;-53
2023/07/01 09:18:25;;;;;;;2.85;2.20;;;17.60;99.90;;;;;;5071879;28;20036;-51
2023/07/01 09:20:54;;;;;;;3.45;2.42;;;17.70;99.90;;;;;;5073649;28;20156;-51
2023/07/01 09:23:30;;;;;;;3.97;2.63;;;17.60;99.90;;;;;;5071945;28;20047;-51
2023/07/01 09:26:10;;;;;;;6.05;2.75;;;17.50;99.90;;;;;;5071937;28;20291;-52
2023/07/01 09:28:39;;;;;;;5.47;2.75;;;17.50;99.90;;;;;;5071245;28;20504;-53
2023/07/01 09:31:09;;;;;;;4.05;2.50;;;17.80;99.90;;;;;;5071418;28;20043;-51
2023/07/01 09:33:35;;;;;;;3.65;1.98;;;17.70;99.90;;;;;;5070323;28;20139;-51
2023/07/01 09:36:02;;;;;;;3.75;1.60;;;17.80;99.90;;;;;;5070631;28;20044;-52
2023/07/01 09:38:31;;;;;;;2.60;1.70;;;17.70;99.90;;;;;;5072560;28;20036;-52
2023/07/01 09:41:17;;;;;;;2.35;1.40;;;17.60;99.90;;;;;;5072447;28;20870;-54
2023/07/01 09:43:42;;;;;;;2.85;1.50;;;17.70;99.90;;;;;;5071280;28;20556;-53
2023/07/01 09:46:08;;;;;;;3.35;1.38;;;17.70;99.90;;;;;;5075513;28;20119;-51
2023/07/01 09:48:35;;;;;;;2.40;1.48;;;17.90;99.90;;;;;;5074981;28;20070;-51
2023/07/01 09:51:02;;;;;;;4.20;1.85;;;17.90;99.90;;;;;;5077711;28;20071;-52
2023/07/01 09:53:34;;;;;;;4.00;1.70;;;18.00;99.90;;;;;;5075893;28;20040;-50
2023/07/01 09:56:03;;;;;;;3.33;1.65;;;17.90;99.90;;;;;;5076295;28;20135;-48
2023/07/01 09:58:33;;;;;;;4.30;1.70;;;18.00;99.90;;;;;;5075875;28;20055;-50
2023/07/01 10:01:02;;;;;;;4.50;2.03;;;18.00;99.90;;;;;;5075513;28;20131;-53
2023/07/01 10:03:28;;;;;;;4.68;2.00;;;18.00;99.90;;;;;;5074046;28;20135;-55
2023/07/01 10:05:54;;;;;;;7.45;2.53;;;18.30;99.90;;;;;;5056779;28;20043;-54
2023/07/01 10:08:21;;;;;;;6.85;2.88;;;18.20;99.90;;;;;;5075252;28;20051;-56
2023/07/01 10:10:58;;;;;;;5.75;3.05;;;18.20;99.90;;;;;;5074860;28;20039;-57
2023/07/01 10:13:24;;;;;;;6.28;2.45;;;18.20;99.90;;;;;;5073179;28;20044;-57
2023/07/01 10:15:50;;;;;;;5.28;3.13;;;18.30;99.90;;;;;;5074426;28;20052;-54
2023/07/01 10:18:23;;;;;;;6.45;3.05;;;18.30;99.90;;;;;;5074622;28;20153;-55
2023/07/01 10:20:53;;;;;;;6.82;3.10;;;18.40;99.90;;;;;;5076371;28;20052;-57
2023/07/01 10:23:21;;;;;;;5.63;3.20;;;18.60;99.90;;;;;;5074392;28;20164;-56
2023/07/01 10:25:47;;;;;;;6.43;3.47;;;18.70;99.90;;;;;;5072579;28;20124;-57
2023/07/01 10:28:14;;;;;;;7.88;3.60;;;18.70;99.90;;;;;;5073658;28;20070;-58
2023/07/01 10:30:43;;;;;;;5.20;2.67;;;18.60;99.90;;;;;;5073470;28;20816;-56
2023/07/01 10:33:35;;;;;;;7.10;3.67;;;18.60;99.90;;;;;;5073537;28;20612;-65
2023/07/01 10:36:13;;;;;;;4.88;2.90;;;20.20;99.90;;;;;;5072762;28;20076;-65
2023/07/01 10:38:39;;;;;;;6.03;3.00;;;18.60;99.90;;;;;;5072539;28;20043;-65
2023/07/01 10:41:05;;;;;;;5.00;3.33;;;18.50;99.90;;;;;;5073927;28;20537;-65
2023/07/01 10:43:36;;;;;;;5.93;3.88;;;18.50;99.90;;;;;;5073774;28;20435;-64
2023/07/01 10:46:03;;;;;;;6.50;3.93;;;18.50;99.90;;;;;;5074166;28;20100;-64
2023/07/01 10:48:29;;;;;;;6.20;3.35;;;18.30;99.90;;;;;;5072461;28;20046;-64
2023/07/01 10:51:11;;;;;;;5.63;2.92;;;18.30;99.90;;;;;;5073619;28;20044;-65
2023/07/01 10:53:59;;;;;;;6.05;3.50;;;18.40;99.90;;;;;;5074066;28;20040;-64
2023/07/01 10:56:30;;;;;;;7.60;3.63;;;20.00;99.90;;;;;;5053836;28;20519;-64
2023/07/01 10:59:17;;;;;;;6.07;4.05;;;18.40;99.90;;;;;;5072937;28;20358;-64
2023/07/01 11:01:45;;;;;;;9.10;4.00;;;18.30;99.90;;;;;;5054809;28;20510;-66
2023/07/01 11:04:11;;;;;;;5.47;3.67;;;18.50;99.90;;;;;;5072793;28;20110;-63
2023/07/01 11:06:47;;;;;;;5.07;3.20;;;18.40;99.90;;;;;;5073626;28;20373;-64
2023/07/01 11:09:13;;;;;;;5.82;4.00;;;18.50;99.90;;;;;;5073195;28;20040;-64
2023/07/01 11:11:40;;;;;;;7.63;3.85;;;18.50;99.90;;;;;;5074838;28;20123;-64
2023/07/01 11:14:10;;;;;;;6.88;3.78;;;18.60;99.90;;;;;;5072983;28;20036;-63
2023/07/01 11:16:38;;;;;;;5.60;3.95;;;18.60;99.90;;;;;;5073545;28;20578;-64
2023/07/01 11:19:08;;;;;;;6.50;3.95;;;18.40;99.90;;;;;;5072504;28;20509;-66
2023/07/01 11:21:34;;;;;;;6.60;4.40;;;18.40;99.90;;;;;;5074130;28;20404;-65
2023/07/01 11:24:06;;;;;;;11.52;5.57;;;17.20;99.90;;;;;;5072875;28;20142;-65
2023/07/01 11:26:40;;;;;;;7.97;5.15;;;18.00;99.90;;;;;;5072364;28;20171;-64
2023/07/01 11:29:24;;;;;;;12.40;5.45;;;18.30;99.90;;;;;;5072441;28;20040;-64
2023/07/01 11:32:00;;;;;;;8.35;5.18;;;17.80;99.90;;;;;;5073406;28;20036;-64
2023/07/01 11:34:28;;;;;;;9.98;5.00;;;18.20;99.90;;;;;;5072425;28;20044;-64
2023/07/01 11:36:54;;;;;;;6.35;5.47;;;18.20;99.90;;;;;;5073168;28;20339;-64
2023/07/01 11:39:19;;;;;;;7.55;5.97;;;18.00;99.90;;;;;;5072855;28;20038;-65
2023/07/01 11:41:55;;;;;;;9.30;6.20;;;18.10;99.90;;;;;;5071795;28;20815;-65
2023/07/01 11:44:25;;;;;;;7.57;6.28;;;18.10;99.90;;;;;;5071885;28;20055;-64
2023/07/01 11:46:52;;;;;;;11.70;7.00;;;18.10;99.90;;;;;;5054351;28;20075;-65
2023/07/01 11:49:30;;;;;;;10.10;7.95;;;18.40;99.90;;;;;;5071528;28;20070;-65
2023/07/01 11:52:02;;;;;;;10.38;6.93;;;18.60;99.90;;;;;;5073707;28;20109;-64
2023/07/01 11:54:39;;;;;;;8.95;6.93;;;18.60;99.90;;;;;;5073954;28;20044;-64
2023/07/01 11:57:13;;;;;;;8.93;5.20;;;19.10;99.90;;;;;;5053957;28;20578;-63
2023/07/01 11:59:40;;;;;;;8.98;6.75;;;18.90;99.90;;;;;;5072407;28;20047;-63
2023/07/01 12:02:07;;;;;;;10.85;5.68;;;19.30;99.90;;;;;;5053989;28;20474;-63
2023/07/01 12:04:36;;;;;;;12.00;6.80;;;19.20;99.90;;;;;;5072862;28;20396;-65
2023/07/01 12:07:13;;;;;;;8.23;4.88;;;19.10;99.90;;;;;;5072109;28;20348;-64
2023/07/01 12:09:42;;;;;;;7.75;5.43;;;19.10;99.90;;;;;;5072390;28;20131;-63
2023/07/01 12:12:31;;;;;;;9.65;5.22;;;19.10;99.90;;;;;;5072031;28;20307;-63
2023/07/01 12:15:04;;;;;;;6.40;4.00;;;19.20;99.90;;;;;;5061996;28;20064;-63
2023/07/01 12:17:30;;;;;;;10.68;4.55;;;19.30;99.90;;;;;;5072892;28;20051;-64
2023/07/01 12:19:58;;;;;;;9.15;4.22;;;19.60;99.90;;;;;;5073342;28;20189;-63
2023/07/01 12:22:25;;;;;;;7.88;4.07;;;19.50;99.90;;;;;;5073825;28;20048;-64
2023/07/01 12:24:55;;;;;;;9.88;4.07;;;19.70;99.90;;;;;;5072084;28;20392;-63
2023/07/01 12:27:21;;;;;;;6.60;3.30;;;19.70;99.90;;;;;;5073718;28;20365;-62
2023/07/01 12:29:46;;;;;;;6.63;3.20;;;19.70;99.90;;;;;;5072070;28;20032;-63
2023/07/01 12:32:12;;;;;;;7.75;3.13;;;19.50;99.90;;;;;;5072582;28;20113;-62
2023/07/01 12:34:38;;;;;;;7.47;3.53;;;19.80;99.90;;;;;;5072962;28;20531;-63
2023/07/01 12:37:06;;;;;;;6.00;3.25;;;19.70;99.90;;;;;;5072178;28;20044;-63
2023/07/01 12:39:32;;;;;;;7.72;3.20;;;19.60;99.90;;;;;;5072058;28;20097;-63
2023/07/01 12:41:59;;;;;;;6.47;3.50;;;19.70;99.90;;;;;;5053131;28;20658;-62
2023/07/01 12:44:25;;;;;;;7.30;3.75;;;19.50;99.90;;;;;;5072098;28;20512;-63
2023/07/01 12:46:51;;;;;;;6.85;3.25;;;19.60;99.90;;;;;;5071928;28;20036;-63